Time;durP1;ratioP1;P1;durP2;ratioP2;P2;SDS_P1;SDS_P2;PMS_P1;PMS_P2;Temp;Humidity;BMP_temperature;BMP_pressure;BME280_temperature;BME280_humidity;BME280_pressure;Samples;Min_cycle;Max_cycle;Signal;HPM_P1;HPM_P2
2022/05/12 00:00:28;;;;;;;;;;;;;;;22.09;36.35;99531.44;1087670;54;19934;-86
2022/05/12 00:01:29;;;;;;;;;;;;;;;22.10;36.18;99536.66;1088143;54;20637;-85
2022/05/12 00:02:33;;;;;;;;;;;;;;;22.14;36.31;99528.84;1088125;54;19942;-85
2022/05/12 00:03:37;;;;;;;;;;;;;;;22.15;36.47;99544.13;1088167;54;19927;-86
2022/05/12 00:04:41;;;;;;;;;;;;;;;22.08;36.85;99541.50;1088247;54;19935;-87
2022/05/12 00:05:42;;;;;;;;;;;;;;;22.03;37.18;99549.53;1088222;54;19981;-85
2022/05/12 00:06:46;;;;;;;;;;;;;;;22.00;37.01;99549.19;1088278;54;19994;-87
2022/05/12 00:07:47;;;;;;;;;;;;;;;22.05;37.28;99544.69;1088169;54;19943;-85
2022/05/12 00:08:51;;;;;;;;;;;;;;;22.05;37.30;99538.41;1088218;54;19933;-84
2022/05/12 00:09:53;;;;;;;;;;;;;;;21.98;37.45;99546.66;1088200;54;19931;-86
2022/05/12 00:10:57;;;;;;;;;;;;;;;22.00;37.53;99543.72;1089684;47;19938;-84
2022/05/12 00:11:58;;;;;;;;;;;;;;;21.99;37.73;99547.50;1088154;54;19935;-85
2022/05/12 00:13:02;;;;;;;;;;;;;;;21.93;37.74;99550.09;1088123;54;19927;-85
2022/05/12 00:14:03;;;;;;;;;;;;;;;21.95;37.82;99560.75;1088112;54;19939;-84
2022/05/12 00:15:08;;;;;;;;;;;;;;;21.95;37.69;99558.84;1088151;54;19983;-84
2022/05/12 00:16:09;;;;;;;;;;;;;;;21.97;37.75;99564.03;1088141;54;19958;-85
2022/05/12 00:17:13;;;;;;;;;;;;;;;22.02;37.99;99568.78;1088104;54;19951;-86
2022/05/12 00:18:14;;;;;;;;;;;;;;;22.03;38.18;99565.84;1094216;39;20685;-85
2022/05/12 00:19:21;;;;;;;;;;;;;;;22.01;38.10;99567.97;1088120;54;20607;-84
2022/05/12 00:20:23;;;;;;;;;;;;;;;21.99;38.67;99564.66;1088122;54;19942;-84
2022/05/12 00:21:27;;;;;;;;;;;;;;;21.96;38.42;99565.94;1088200;54;19942;-83
2022/05/12 00:22:28;;;;;;;;;;;;;;;21.92;38.73;99570.19;1088399;54;20428;-83
2022/05/12 00:23:32;;;;;;;;;;;;;;;21.97;38.38;99566.78;1088512;54;20613;-84
2022/05/12 00:24:36;;;;;;;;;;;;;;;22.00;38.51;99565.50;1088526;54;19943;-84
2022/05/12 00:25:38;;;;;;;;;;;;;;;22.01;38.20;99572.59;1088533;54;19994;-85
2022/05/12 00:26:42;;;;;;;;;;;;;;;21.96;38.48;99567.84;1088513;54;19950;-85
2022/05/12 00:27:43;;;;;;;;;;;;;;;21.99;38.62;99569.28;1088483;54;19927;-86
2022/05/12 00:28:47;;;;;;;;;;;;;;;21.97;38.77;99573.06;1088487;54;19983;-86
2022/05/12 00:29:48;;;;;;;;;;;;;;;21.94;38.66;99573.50;1088459;54;19942;-86
2022/05/12 00:30:53;;;;;;;;;;;;;;;21.92;38.69;99570.19;1088426;54;20016;-86
2022/05/12 00:31:54;;;;;;;;;;;;;;;21.89;38.69;99573.38;1088478;54;20846;-85
2022/05/12 00:32:58;;;;;;;;;;;;;;;21.90;39.13;99572.34;1088404;54;20520;-85
2022/05/12 00:33:59;;;;;;;;;;;;;;;21.92;38.86;99572.09;1088518;54;19934;-86
2022/05/12 00:35:06;;;;;;;;;;;;;;;21.91;38.90;99587.59;1088528;54;20010;-85
2022/05/12 00:36:07;;;;;;;;;;;;;;;21.90;39.33;99576.94;1088481;54;20655;-86
2022/05/12 00:37:12;;;;;;;;;;;;;;;21.87;39.47;99580.94;1088474;54;19967;-85
2022/05/12 00:38:13;;;;;;;;;;;;;;;21.88;39.16;99576.31;1088480;54;19942;-84
2022/05/12 00:39:17;;;;;;;;;;;;;;;21.88;39.53;99582.59;1088571;54;20004;-85
2022/05/12 00:40:18;;;;;;;;;;;;;;;21.88;39.19;99584.47;1091523;39;20563;-86
2022/05/12 00:41:22;;;;;;;;;;;;;;;21.86;39.73;99589.34;1088533;54;19935;-84
2022/05/12 00:42:23;;;;;;;;;;;;;;;21.87;39.62;99580.94;1089414;46;19943;-84
2022/05/12 00:43:39;;;;;;;;;;;;;;;21.90;39.58;99588.66;1088515;54;19947;-87
2022/05/12 00:44:43;;;;;;;;;;;;;;;21.95;39.33;99591.50;1088569;54;19967;-86
2022/05/12 00:45:45;;;;;;;;;;;;;;;22.01;39.14;99586.22;1088520;54;20004;-86
2022/05/12 00:46:50;;;;;;;;;;;;;;;22.04;38.96;99588.44;1088520;54;19938;-84
2022/05/12 00:47:52;;;;;;;;;;;;;;;22.05;39.01;99587.38;1091839;46;19990;-86
2022/05/12 00:48:59;;;;;;;;;;;;;;;22.07;38.91;99582.56;1089174;46;19943;-85
2022/05/12 00:50:00;;;;;;;;;;;;;;;22.08;39.21;99589.66;1094574;39;20081;-84
2022/05/12 00:51:08;;;;;;;;;;;;;;;22.07;39.19;99596.16;1088622;46;19923;-85
2022/05/12 00:52:14;;;;;;;;;;;;;;;22.05;39.36;99587.38;1089607;46;19967;-85
2022/05/12 00:53:15;;;;;;;;;;;;;;;22.04;39.49;99596.63;1088507;54;19942;-85
2022/05/12 00:54:20;;;;;;;;;;;;;;;22.02;39.32;99604.16;1088468;54;19942;-84
2022/05/12 00:55:24;;;;;;;;;;;;;;;21.95;39.55;99604.28;1088456;54;19939;-85
2022/05/12 00:56:28;;;;;;;;;;;;;;;21.87;40.36;99604.63;1088420;54;19943;-85
2022/05/12 00:57:30;;;;;;;;;;;;;;;21.81;40.12;99603.63;1088425;54;19967;-86
2022/05/12 00:58:35;;;;;;;;;;;;;;;21.79;40.46;99601.13;1088861;39;20565;-84
2022/05/12 00:59:36;;;;;;;;;;;;;;;21.80;40.73;99607.41;1088437;54;19938;-84
2022/05/12 01:00:40;;;;;;;;;;;;;;;21.69;40.89;99616.34;1088324;54;19926;-83
2022/05/12 01:01:41;;;;;;;;;;;;;;;21.71;40.87;99608.78;1088372;54;19950;-84
2022/05/12 01:02:47;;;;;;;;;;;;;;;21.65;41.17;99619.50;1088428;54;19935;-85
2022/05/12 01:03:48;;;;;;;;;;;;;;;21.68;40.81;99609.25;1088420;54;19943;-84
2022/05/12 01:04:53;;;;;;;;;;;;;;;21.66;40.83;99604.84;1088439;54;19943;-85
2022/05/12 01:05:54;;;;;;;;;;;;;;;21.66;40.96;99613.00;1089457;39;20561;-85
2022/05/12 01:07:01;;;;;;;;;;;;;;;21.65;40.94;99614.06;1088438;54;20619;-86
2022/05/12 01:08:03;;;;;;;;;;;;;;;21.70;41.21;99612.56;1089809;39;20461;-83
2022/05/12 01:09:06;;;;;;;;;;;;;;;21.71;41.26;99614.22;1090397;39;20573;-84
2022/05/12 01:10:09;;;;;;;;;;;;;;;21.76;40.90;99619.81;1088469;54;19942;-84
2022/05/12 01:11:14;;;;;;;;;;;;;;;21.82;40.63;99610.75;1088418;54;19975;-85
2022/05/12 01:12:15;;;;;;;;;;;;;;;21.85;40.76;99607.53;1092942;39;20439;-85
2022/05/12 01:13:20;;;;;;;;;;;;;;;21.88;40.55;99612.53;1088390;54;19934;-85
2022/05/12 01:14:22;;;;;;;;;;;;;;;21.88;40.75;99609.81;1091974;39;20471;-84
2022/05/12 01:15:27;;;;;;;;;;;;;;;21.91;40.63;99611.22;1088436;54;19943;-84
2022/05/12 01:16:35;;;;;;;;;;;;;;;21.90;40.86;99615.00;1088400;54;19946;-84
2022/05/12 01:17:39;;;;;;;;;;;;;;;21.93;40.78;99615.38;1088385;54;19994;-84
2022/05/12 01:18:40;;;;;;;;;;;;;;;21.93;40.70;99620.00;1090443;39;20809;-84
2022/05/12 01:19:45;;;;;;;;;;;;;;;21.87;41.09;99615.50;1088392;54;19943;-84
2022/05/12 01:20:46;;;;;;;;;;;;;;;21.75;41.52;99616.25;1088369;54;19968;-85
2022/05/12 01:21:51;;;;;;;;;;;;;;;21.72;41.89;99613.19;1088374;54;19998;-83
2022/05/12 01:22:59;;;;;;;;;;;;;;;21.59;42.31;99620.44;1091376;39;20522;-84
2022/05/12 01:24:06;;;;;;;;;;;;;;;21.59;42.71;99627.75;1088468;54;19964;-84
2022/05/12 01:25:09;;;;;;;;;;;;;;;21.57;42.42;99627.94;1088441;54;19942;-85
2022/05/12 01:26:14;;;;;;;;;;;;;;;21.57;42.63;99625.22;1090992;46;19999;-84
2022/05/12 01:27:22;;;;;;;;;;;;;;;21.57;42.94;99635.28;1088369;54;19973;-84
2022/05/12 01:28:26;;;;;;;;;;;;;;;21.51;43.12;99626.16;1088361;54;19975;-86
2022/05/12 01:29:28;;;;;;;;;;;;;;;21.48;43.26;99634.75;1088364;54;20518;-82
2022/05/12 01:30:32;;;;;;;;;;;;;;;21.50;42.94;99640.81;1088425;54;19950;-83
2022/05/12 01:31:33;;;;;;;;;;;;;;;;;;1088356;54;20671;-85
2022/05/12 01:32:37;;;;;;;;;;;;;;;21.49;43.20;99642.66;1088374;54;20601;-84
2022/05/12 01:33:38;;;;;;;;;;;;;;;21.51;43.04;99634.31;1088452;54;19943;-83
2022/05/12 01:34:42;;;;;;;;;;;;;;;21.51;42.97;99645.19;1088423;54;19998;-83
2022/05/12 01:35:44;;;;;;;;;;;;;;;21.48;43.26;99638.31;1088459;54;19927;-84
2022/05/12 01:36:48;;;;;;;;;;;;;;;21.41;43.55;99639.44;1088378;54;19946;-83
2022/05/12 01:37:50;;;;;;;;;;;;;;;21.33;43.84;99643.28;1088397;54;19934;-87
2022/05/12 01:38:54;;;;;;;;;;;;;;;21.33;44.25;99644.13;1088406;54;19927;-87
2022/05/12 01:39:58;;;;;;;;;;;;;;;21.27;44.06;99645.00;1088467;54;19926;-83
2022/05/12 01:41:02;;;;;;;;;;;;;;;21.19;44.65;99648.03;1088455;54;19942;-85
2022/05/12 01:42:03;;;;;;;;;;;;;;;21.19;44.53;99640.72;1088468;54;19948;-85
2022/05/12 01:43:07;;;;;;;;;;;;;;;21.15;44.82;99653.06;1088419;54;19947;-86
2022/05/12 01:44:08;;;;;;;;;;;;;;;21.15;44.81;99652.25;1088490;54;19949;-85
2022/05/12 01:45:13;;;;;;;;;;;;;;;21.18;44.63;99646.34;1088452;54;19945;-86
2022/05/12 01:46:14;;;;;;;;;;;;;;;21.14;44.98;99647.88;1088378;54;19943;-85
2022/05/12 01:47:18;;;;;;;;;;;;;;;21.08;45.38;99651.47;1088357;54;19926;-86
2022/05/12 01:48:19;;;;;;;;;;;;;;;21.07;45.35;99652.53;1088427;54;21107;-84
2022/05/12 01:49:23;;;;;;;;;;;;;;;20.97;46.01;99648.44;1091432;39;20577;-86
2022/05/12 01:50:24;;;;;;;;;;;;;;;21.03;45.53;99655.72;1088443;54;19955;-84
2022/05/12 01:51:29;;;;;;;;;;;;;;;20.98;45.98;99658.25;1088376;54;19927;-85
2022/05/12 01:52:30;;;;;;;;;;;;;;;21.04;45.48;99660.09;1088365;54;20594;-86
2022/05/12 01:53:34;;;;;;;;;;;;;;;21.06;45.57;99651.69;1088428;54;19950;-85
2022/05/12 01:54:35;;;;;;;;;;;;;;;21.03;45.95;99661.13;1088406;54;19969;-86
2022/05/12 01:55:43;;;;;;;;;;;;;;;20.99;46.18;99659.09;1088442;54;20821;-86
2022/05/12 01:56:44;;;;;;;;;;;;;;;20.94;46.29;99667.91;1090403;39;20427;-85
2022/05/12 01:57:48;;;;;;;;;;;;;;;20.84;46.75;99662.97;1088347;54;19991;-85
2022/05/12 01:58:51;;;;;;;;;;;;;;;20.87;46.62;99661.72;1088396;54;19967;-85
2022/05/12 01:59:52;;;;;;;;;;;;;;;20.98;46.06;99674.53;1088436;54;19976;-87
2022/05/12 02:00:56;;;;;;;;;;;;;;;20.93;46.35;99663.53;1088165;54;19935;-86
2022/05/12 02:01:58;;;;;;;;;;;;;;;20.94;46.14;99670.63;1088380;54;19960;-85
2022/05/12 02:03:02;;;;;;;;;;;;;;;20.84;46.72;99662.16;1088401;54;19946;-86
2022/05/12 02:04:06;;;;;;;;;;;;;;;20.89;46.46;99675.88;1088418;54;19999;-85
2022/05/12 02:05:09;;;;;;;;;;;;;;;20.97;46.13;99672.88;1088347;54;19975;-85
2022/05/12 02:06:13;;;;;;;;;;;;;;;20.98;46.10;99668.28;1088390;54;19947;-84
2022/05/12 02:07:14;;;;;;;;;;;;;;;20.99;46.15;99669.97;1088334;54;20721;-85
2022/05/12 02:08:20;;;;;;;;;;;;;;;21.07;45.62;99668.81;1088312;54;19938;-83
2022/05/12 02:09:21;;;;;;;;;;;;;;;20.95;45.86;99679.59;1088328;54;19966;-86
2022/05/12 02:10:26;;;;;;;;;;;;;;;21.03;45.90;99680.16;1089552;46;20564;-85
2022/05/12 02:11:30;;;;;;;;;;;;;;;21.02;45.59;99685.78;1088345;54;20202;-84
2022/05/12 02:12:34;;;;;;;;;;;;;;;21.06;45.67;99675.34;1088313;54;19939;-83
2022/05/12 02:13:37;;;;;;;;;;;;;;;20.96;45.71;99684.81;1088358;54;19951;-87
2022/05/12 02:14:39;;;;;;;;;;;;;;;21.03;45.72;99687.47;1088878;46;19983;-87
2022/05/12 02:15:43;;;;;;;;;;;;;;;21.07;45.21;99687.84;1088296;54;19983;-84
2022/05/12 02:16:44;;;;;;;;;;;;;;;21.03;45.38;99685.59;1089837;39;20420;-86
2022/05/12 02:17:49;;;;;;;;;;;;;;;21.03;45.30;99687.47;1088243;54;19954;-84
2022/05/12 02:18:53;;;;;;;;;;;;;;;20.97;45.34;99691.91;1088359;54;19949;-83
2022/05/12 02:19:54;;;;;;;;;;;;;;;21.03;44.95;99695.63;1088390;54;19938;-84
2022/05/12 02:20:58;;;;;;;;;;;;;;;21.04;44.68;99692.69;1088311;54;19998;-86
2022/05/12 02:22:02;;;;;;;;;;;;;;;21.04;44.94;99686.41;1088351;54;19949;-84
2022/05/12 02:23:06;;;;;;;;;;;;;;;21.11;44.68;99691.78;1088236;54;19987;-84
2022/05/12 02:24:07;;;;;;;;;;;;;;;21.05;44.74;99682.66;1088335;54;19943;-87
2022/05/12 02:25:12;;;;;;;;;;;;;;;21.03;44.63;99682.03;1088326;54;19979;-85
2022/05/12 02:26:14;;;;;;;;;;;;;;;21.08;44.70;99695.78;1088299;54;19927;-87
2022/05/12 02:27:20;;;;;;;;;;;;;;;21.09;44.48;99692.03;1088348;54;19938;-85
2022/05/12 02:28:21;;;;;;;;;;;;;;;21.07;44.74;99688.69;1088294;54;19942;-84
2022/05/12 02:29:25;;;;;;;;;;;;;;;21.14;44.58;99692.19;1088360;54;19986;-87
2022/05/12 02:30:28;;;;;;;;;;;;;;;21.19;44.44;99695.06;1088325;54;19946;-85
2022/05/12 02:31:32;;;;;;;;;;;;;;;21.17;44.67;99699.03;1088289;54;20606;-87
2022/05/12 02:32:33;;;;;;;;;;;;;;;21.14;44.67;99697.63;1088262;54;20646;-84
2022/05/12 02:33:38;;;;;;;;;;;;;;;21.13;44.91;99692.41;1088403;54;19958;-87
2022/05/12 02:34:39;;;;;;;;;;;;;;;21.23;44.35;99698.16;1088332;54;19934;-86
2022/05/12 02:35:44;;;;;;;;;;;;;;;21.20;44.50;99709.47;1088393;54;19943;-86
2022/05/12 02:36:59;;;;;;;;;;;;;;;21.14;44.72;99704.94;1088420;54;19955;-87
2022/05/12 02:38:03;;;;;;;;;;;;;;;21.13;44.85;99714.16;1090470;46;19955;-84
2022/05/12 02:39:04;;;;;;;;;;;;;;;21.16;44.92;99709.09;1088327;54;19967;-85
2022/05/12 02:40:10;;;;;;;;;;;;;;;21.16;44.70;99716.44;1088325;54;20028;-85
2022/05/12 02:41:11;;;;;;;;;;;;;;;21.18;44.93;99712.44;1088351;54;19948;-86
2022/05/12 02:42:14;;;;;;;;;;;;;;;21.19;45.06;99714.09;1091867;39;20557;-87
2022/05/12 02:43:29;;;;;;;;;;;;;;;21.13;45.18;99716.88;1088325;54;19926;-84
2022/05/12 02:44:30;;;;;;;;;;;;;;;21.11;45.12;99719.78;1088055;54;19942;-84
2022/05/12 02:45:34;;;;;;;;;;;;;;;21.10;45.29;99722.75;1088350;54;19935;-87
2022/05/12 02:46:35;;;;;;;;;;;;;;;21.09;45.52;99718.34;1088318;54;19942;-84
2022/05/12 02:47:39;;;;;;;;;;;;;;;20.96;45.46;99722.88;1088285;54;19994;-84
2022/05/12 02:48:41;;;;;;;;;;;;;;;20.90;45.79;99726.44;1089984;46;19942;-88
2022/05/12 02:49:45;;;;;;;;;;;;;;;20.92;45.74;99723.53;1088374;54;20528;-85
2022/05/12 02:50:46;;;;;;;;;;;;;;;20.86;45.83;99730.66;1088391;54;19943;-87
2022/05/12 02:51:50;;;;;;;;;;;;;;;20.94;45.84;99730.41;1088354;54;19938;-84
2022/05/12 02:52:51;;;;;;;;;;;;;;;20.94;45.89;99730.41;1088300;54;19943;-86
2022/05/12 02:53:55;;;;;;;;;;;;;;;20.95;45.86;99728.50;1088309;54;19938;-87
2022/05/12 02:54:56;;;;;;;;;;;;;;;21.04;45.27;99736.16;1088321;54;19973;-86
2022/05/12 02:56:01;;;;;;;;;;;;;;;21.06;45.58;99735.94;1088356;54;19943;-85
2022/05/12 02:57:03;;;;;;;;;;;;;;;20.98;45.84;99723.44;1088332;54;19960;-86
2022/05/12 02:58:07;;;;;;;;;;;;;;;20.92;45.87;99735.22;1088228;54;19942;-84
2022/05/12 02:59:11;;;;;;;;;;;;;;;20.97;45.64;99735.38;1089063;47;19943;-85
2022/05/12 03:00:19;;;;;;;;;;;;;;;20.86;46.09;99736.09;1088323;54;19935;-86
2022/05/12 03:01:20;;;;;;;;;;;;;;;20.95;45.94;99736.66;1088021;54;19942;-86
2022/05/12 03:02:24;;;;;;;;;;;;;;;20.91;45.65;99740.88;1088467;47;22890;-87
2022/05/12 03:03:28;;;;;;;;;;;;;;;20.94;45.92;99743.13;1088274;54;20528;-84
2022/05/12 03:04:29;;;;;;;;;;;;;;;20.90;45.66;99742.75;1088246;54;19943;-86
2022/05/12 03:05:33;;;;;;;;;;;;;;;20.79;46.31;99744.28;1091648;39;20064;-84
2022/05/12 03:06:34;;;;;;;;;;;;;;;20.86;46.11;99739.63;1088281;54;19935;-84
2022/05/12 03:07:38;;;;;;;;;;;;;;;20.94;45.50;99749.41;1088218;54;19950;-84
2022/05/12 03:08:44;;;;;;;;;;;;;;;20.84;45.74;99746.34;1088260;54;19967;-84
2022/05/12 03:09:45;;;;;;;;;;;;;;;20.78;45.96;99745.34;1089731;46;19975;-85
2022/05/12 03:10:51;;;;;;;;;;;;;;;20.88;45.99;99751.13;1088782;47;19938;-84
2022/05/12 03:11:52;;;;;;;;;;;;;;;20.85;45.88;99742.59;1088170;54;20785;-84
2022/05/12 03:12:56;;;;;;;;;;;;;;;20.77;46.33;99738.25;1088268;54;20001;-86
2022/05/12 03:13:59;;;;;;;;;;;;;;;20.76;46.22;99747.44;1088312;54;20032;-84
2022/05/12 03:15:06;;;;;;;;;;;;;;;20.82;46.00;99752.00;1088326;54;19983;-85
2022/05/12 03:16:07;;;;;;;;;;;;;;;20.80;46.21;99753.25;1088372;54;19943;-86
2022/05/12 03:17:13;;;;;;;;;;;;;;;20.81;46.23;99752.22;1090536;39;20758;-85
2022/05/12 03:18:14;;;;;;;;;;;;;;;20.84;45.82;99754.50;1090832;47;19945;-84
2022/05/12 03:19:18;;;;;;;;;;;;;;;20.67;46.46;99757.72;1088363;54;20027;-85
2022/05/12 03:20:22;;;;;;;;;;;;;;;20.63;46.89;99761.09;1088424;54;19957;-86
2022/05/12 03:21:26;;;;;;;;;;;;;;;20.69;46.61;99758.31;1088529;47;19943;-88
2022/05/12 03:22:30;;;;;;;;;;;;;;;20.58;47.02;99764.47;1092466;47;19943;-88
2022/05/12 03:23:31;;;;;;;;;;;;;;;20.51;47.14;99767.19;1088412;54;19934;-85
2022/05/12 03:24:35;;;;;;;;;;;;;;;20.48;47.10;99764.09;1088302;54;19943;-87
2022/05/12 03:25:37;;;;;;;;;;;;;;;20.45;47.51;99762.63;1088278;54;19927;-85
2022/05/12 03:26:40;;;;;;;;;;;;;;;20.46;47.43;99763.47;1092786;39;20440;-84
2022/05/12 03:27:43;;;;;;;;;;;;;;;20.44;47.44;99769.13;1088290;54;19973;-85
2022/05/12 03:28:48;;;;;;;;;;;;;;;20.51;47.20;99769.91;1088265;54;19927;-85
2022/05/12 03:29:51;;;;;;;;;;;;;;;20.54;47.20;99774.06;1088232;54;19946;-85
2022/05/12 03:30:55;;;;;;;;;;;;;;;20.57;47.00;99771.75;1088233;54;19930;-84
2022/05/12 03:31:59;;;;;;;;;;;;;;;20.46;47.57;99772.44;1088204;54;19926;-87
2022/05/12 03:33:01;;;;;;;;;;;;;;;20.39;47.49;99775.19;1088225;54;19942;-86
2022/05/12 03:34:06;;;;;;;;;;;;;;;20.42;47.74;99772.03;1088351;54;19947;-86
2022/05/12 03:35:10;;;;;;;;;;;;;;;20.32;47.96;99777.09;1088322;54;19933;-86
2022/05/12 03:36:15;;;;;;;;;;;;;;;20.27;48.11;99772.31;1088353;54;19939;-85
2022/05/12 03:37:16;;;;;;;;;;;;;;;20.23;47.75;99776.53;1088376;54;19943;-88
2022/05/12 03:38:20;;;;;;;;;;;;;;;20.24;48.17;99777.34;1088260;54;19931;-85
2022/05/12 03:39:22;;;;;;;;;;;;;;;20.20;47.84;99774.22;1088265;54;19943;-86
2022/05/12 03:40:36;;;;;;;;;;;;;;;20.23;47.82;99778.38;1089668;47;19951;-85
2022/05/12 03:41:37;;;;;;;;;;;;;;;20.31;47.82;99780.84;1089337;47;19927;-85
2022/05/12 03:42:42;;;;;;;;;;;;;;;20.17;47.83;99774.66;1090690;47;19986;-84
2022/05/12 03:45:00;;;;;;;;;;;;;;;20.30;47.89;99784.63;1088379;54;19926;-84
2022/05/12 03:46:03;;;;;;;;;;;;;;;20.27;47.90;99774.19;1090301;47;19942;-84
2022/05/12 03:47:07;;;;;;;;;;;;;;;20.16;48.33;99780.28;1088276;54;19943;-86
2022/05/12 03:48:12;;;;;;;;;;;;;;;20.01;48.61;99781.41;1088231;54;19934;-86
2022/05/12 03:49:13;;;;;;;;;;;;;;;19.97;48.88;99782.84;1088267;54;19926;-85
2022/05/12 03:50:18;;;;;;;;;;;;;;;19.91;48.90;99787.25;1088354;54;19941;-87
2022/05/12 03:51:19;;;;;;;;;;;;;;;19.96;48.87;99792.03;1088323;54;19934;-86
2022/05/12 03:52:24;;;;;;;;;;;;;;;19.88;48.92;99789.56;1088325;54;19943;-87
2022/05/12 03:53:25;;;;;;;;;;;;;;;19.92;49.13;99793.53;1088266;54;19946;-86
2022/05/12 03:54:29;;;;;;;;;;;;;;;19.96;48.97;99792.03;1088239;47;20331;-85
2022/05/12 03:55:30;;;;;;;;;;;;;;;19.91;49.02;99794.56;1088221;54;19933;-86
2022/05/12 03:56:35;;;;;;;;;;;;;;;19.85;49.20;99800.78;1088354;54;20647;-86
2022/05/12 03:57:36;;;;;;;;;;;;;;;19.87;49.03;99807.72;1088619;54;19934;-85
2022/05/12 03:58:40;;;;;;;;;;;;;;;19.98;48.80;99805.41;1088611;54;19954;-86
2022/05/12 03:59:42;;;;;;;;;;;;;;;19.91;48.98;99798.09;1088675;54;19934;-84
2022/05/12 04:00:48;;;;;;;;;;;;;;;19.86;49.38;99802.50;1088716;54;19942;-84
2022/05/12 04:01:54;;;;;;;;;;;;;;;19.83;49.16;99817.28;1088780;46;19958;-85
2022/05/12 04:02:56;;;;;;;;;;;;;;;19.80;49.31;99813.13;1088296;54;19952;-85
2022/05/12 04:04:00;;;;;;;;;;;;;;;19.74;49.76;99813.13;1091669;46;19965;-84
2022/05/12 04:05:01;;;;;;;;;;;;;;;19.77;49.64;99818.97;1092298;46;20654;-85
2022/05/12 04:06:08;;;;;;;;;;;;;;;19.83;49.48;99813.75;1089722;46;19926;-83
2022/05/12 04:07:11;;;;;;;;;;;;;;;19.95;48.92;99807.50;1095158;46;19942;-83
2022/05/12 04:08:15;;;;;;;;;;;;;;;19.93;48.95;99825.03;1089783;46;19927;-84
2022/05/12 04:09:19;;;;;;;;;;;;;;;19.89;49.24;99824.59;1089667;46;19923;-85
2022/05/12 04:10:22;;;;;;;;;;;;;;;19.87;49.18;99825.88;1088685;54;19937;-85
2022/05/12 04:11:26;;;;;;;;;;;;;;;19.85;49.39;99830.63;1089374;46;19942;-85
2022/05/12 04:12:30;;;;;;;;;;;;;;;19.86;49.62;99833.19;1088607;54;19943;-83
2022/05/12 04:13:34;;;;;;;;;;;;;;;19.98;48.86;99832.53;1091826;46;19999;-85
2022/05/12 04:14:35;;;;;;;;;;;;;;;20.03;48.85;99836.25;1088646;54;19946;-83
2022/05/12 04:15:39;;;;;;;;;;;;;;;19.93;49.31;99835.88;1088543;54;19923;-83
2022/05/12 04:16:44;;;;;;;;;;;;;;;19.80;49.50;99842.97;1089623;46;19952;-83
2022/05/12 04:17:57;;;;;;;;;;;;;;;19.67;49.91;99842.13;1088448;54;19943;-83
2022/05/12 04:19:03;;;;;;;;;;;;;;;19.66;50.09;99846.72;1088496;54;19926;-86
2022/05/12 04:20:06;;;;;;;;;;;;;;;19.69;49.84;99854.44;1089463;46;20559;-84
2022/05/12 04:21:10;;;;;;;;;;;;;;;19.75;49.71;99855.47;1088461;54;19946;-85
2022/05/12 04:22:11;;;;;;;;;;;;;;;19.72;50.04;99862.16;1088473;54;20034;-86
2022/05/12 04:23:15;;;;;;;;;;;;;;;19.64;50.02;99859.66;1090294;46;19999;-85
2022/05/12 04:24:16;;;;;;;;;;;;;;;19.64;50.10;99854.25;1093571;39;20566;-84
2022/05/12 04:25:20;;;;;;;;;;;;;;;19.66;50.24;99860.25;1088499;54;19954;-84
2022/05/12 04:26:21;;;;;;;;;;;;;;;19.64;50.13;99859.66;1088477;54;20611;-84
2022/05/12 04:27:26;;;;;;;;;;;;;;;19.75;49.79;99866.31;1088483;54;19984;-84
2022/05/12 04:28:30;;;;;;;;;;;;;;;19.61;50.28;99860.91;1088383;54;19926;-85
2022/05/12 04:29:34;;;;;;;;;;;;;;;19.66;50.10;99862.97;1088470;54;19942;-85
2022/05/12 04:30:36;;;;;;;;;;;;;;;19.74;49.83;99865.47;1088502;54;19927;-83
2022/05/12 04:31:39;;;;;;;;;;;;;;;19.68;50.24;99870.94;1088476;54;20670;-85
2022/05/12 04:32:41;;;;;;;;;;;;;;;19.68;50.49;99877.16;1088404;54;19942;-85
2022/05/12 04:35:15;;;;;;;;;;;;;;;19.66;50.16;99879.25;1088491;54;19949;-85
2022/05/12 04:36:16;;;;;;;;;;;;;;;19.72;50.23;99885.72;1088490;54;19942;-85
2022/05/12 04:37:20;;;;;;;;;;;;;;;19.60;50.27;99885.50;1088447;54;19998;-85
2022/05/12 04:38:21;;;;;;;;;;;;;;;19.73;50.02;99887.38;1088418;54;19934;-83
2022/05/12 04:39:25;;;;;;;;;;;;;;;19.74;50.09;99881.75;1088483;54;19935;-86
2022/05/12 04:40:28;;;;;;;;;;;;;;;19.69;50.22;99894.28;1088458;54;19943;-85
2022/05/12 04:41:32;;;;;;;;;;;;;;;19.52;50.90;99883.00;1088473;54;19942;-84
2022/05/12 04:42:33;;;;;;;;;;;;;;;19.61;50.57;99888.00;1091428;39;20574;-83
2022/05/12 04:43:37;;;;;;;;;;;;;;;19.68;50.19;99890.72;1088467;54;19950;-86
2022/05/12 04:44:38;;;;;;;;;;;;;;;19.58;50.74;99895.72;1088530;54;19943;-84
2022/05/12 04:45:43;;;;;;;;;;;;;;;19.72;50.38;99889.28;1088476;54;19999;-85
2022/05/12 04:46:44;;;;;;;;;;;;;;;19.58;50.52;99899.28;1088506;54;19939;-84
2022/05/12 04:47:49;;;;;;;;;;;;;;;19.62;50.73;99894.28;1088838;39;20447;-85
2022/05/12 04:48:52;;;;;;;;;;;;;;;19.72;50.42;99900.13;1088469;54;19952;-86
2022/05/12 04:49:56;;;;;;;;;;;;;;;19.76;50.17;99895.94;1088462;54;19933;-84
2022/05/12 04:50:58;;;;;;;;;;;;;;;19.72;50.35;99896.56;1088456;54;19943;-85
2022/05/12 04:52:02;;;;;;;;;;;;;;;19.70;50.82;99898.63;1088448;54;20659;-84
2022/05/12 04:53:03;;;;;;;;;;;;;;;19.78;50.22;99903.88;1088411;54;19965;-89
2022/05/12 04:54:09;;;;;;;;;;;;;;;19.84;50.39;99899.50;1088462;54;19942;-85
2022/05/12 04:55:10;;;;;;;;;;;;;;;19.78;50.62;99904.72;1088526;54;19942;-86
2022/05/12 04:56:14;;;;;;;;;;;;;;;19.71;50.50;99901.16;1088537;54;19949;-84
2022/05/12 04:57:15;;;;;;;;;;;;;;;19.74;50.67;99899.91;1088549;54;20010;-85
2022/05/12 04:59:22;;;;;;;;;;;;;;;19.82;50.54;99902.41;1088414;54;19945;-84
2022/05/12 05:00:25;;;;;;;;;;;;;;;19.81;50.37;99903.44;1088480;54;20629;-82
2022/05/12 05:01:29;;;;;;;;;;;;;;;19.80;50.49;99904.47;1093002;39;20884;-83
2022/05/12 05:02:30;;;;;;;;;;;;;;;19.87;50.46;99918.94;1088438;54;19935;-83
2022/05/12 05:03:34;;;;;;;;;;;;;;;19.97;50.21;99909.53;1088466;54;20049;-83
2022/05/12 05:04:38;;;;;;;;;;;;;;;20.07;49.65;99908.06;1088416;54;19943;-83
2022/05/12 05:05:41;;;;;;;;;;;;;;;20.08;49.82;99908.88;1088431;54;20553;-81
2022/05/12 05:06:43;;;;;;;;;;;;;;;19.97;50.12;99917.69;1088407;54;19943;-80
2022/05/12 05:07:47;;;;;;;;;;;;;;;19.85;50.51;99912.00;1091464;39;20484;-81
2022/05/12 05:08:48;;;;;;;;;;;;;;;19.90;50.12;99920.38;1088433;54;19935;-81
2022/05/12 05:09:51;;;;;;;;;;;;;;;19.82;50.71;99920.56;1088430;54;19935;-82
2022/05/12 05:10:53;;;;;;;;;;;;;;;19.90;50.38;99913.06;1088484;54;19942;-83
2022/05/12 05:11:57;;;;;;;;;;;;;;;19.79;50.68;99919.94;1089829;46;19943;-84
2022/05/12 05:12:58;;;;;;;;;;;;;;;19.93;50.51;99919.97;1088803;39;20482;-83
2022/05/12 05:14:01;;;;;;;;;;;;;;;19.98;50.62;99920.16;1088465;54;19973;-82
2022/05/12 05:15:04;;;;;;;;;;;;;;;19.89;50.65;99924.97;1088438;54;19950;-84
2022/05/12 05:16:08;;;;;;;;;;;;;;;19.80;50.75;99923.47;1088452;54;19943;-82
2022/05/12 05:17:09;;;;;;;;;;;;;;;19.96;50.24;99922.25;1088439;54;19942;-82
2022/05/12 05:18:14;;;;;;;;;;;;;;;19.91;50.67;99938.34;1088361;54;19949;-81
2022/05/12 05:19:18;;;;;;;;;;;;;;;19.84;50.88;99926.63;1088477;54;19943;-82
2022/05/12 05:20:24;;;;;;;;;;;;;;;19.99;50.33;99932.69;1088466;54;19943;-82
2022/05/12 05:21:27;;;;;;;;;;;;;;;19.92;50.73;99937.28;1088502;54;19959;-82
2022/05/12 05:22:29;;;;;;;;;;;;;;;19.97;50.78;99934.78;1089389;46;19942;-83
2022/05/12 05:23:32;;;;;;;;;;;;;;;19.98;50.67;99938.34;1088408;54;20636;-83
2022/05/12 05:24:34;;;;;;;;;;;;;;;20.02;50.40;99939.56;1088536;54;19950;-82
2022/05/12 05:25:38;;;;;;;;;;;;;;;19.97;50.76;99945.63;1088746;46;20011;-82
2022/05/12 05:26:42;;;;;;;;;;;;;;;19.93;50.83;99952.53;1088473;54;19949;-82
2022/05/12 05:27:45;;;;;;;;;;;;;;;19.87;50.95;99939.78;1088488;54;19954;-82
2022/05/12 05:28:49;;;;;;;;;;;;;;;19.80;51.44;99956.88;1088405;54;19950;-81
2022/05/12 05:29:51;;;;;;;;;;;;;;;19.86;51.27;99949.81;1088410;54;19946;-83
2022/05/12 05:30:54;;;;;;;;;;;;;;;19.90;51.39;99953.75;1088384;54;20626;-84
2022/05/12 05:31:55;;;;;;;;;;;;;;;19.90;51.34;99956.47;1088479;54;19934;-84
2022/05/12 05:32:59;;;;;;;;;;;;;;;19.88;51.72;99957.72;1088392;54;19939;-84
2022/05/12 05:34:00;;;;;;;;;;;;;;;19.80;51.90;99956.88;1088433;54;20061;-82